• Join FlightAware (Why Join?)
  • Login
  • US Flag 
03:24AM EDT


 

Airport Tracker/Info


-or-


 

Live Flight TrackerFlight Track Log ✈ SKW6425 ✈ 23-Jul-2013 ✈ CYQR - KORD

Flight Track Log - Related Links

Times and Time Zones

All times are in EDT time to prevent confusion due to time zone crossing. See the SKW6425 flight status page for this flight to view local times or setup timezone preferences in your user account.

Time Position Orientation Groundspeed Altitude Reporting Facility
EDT Latitude Longitude Course Direction KTS MPH feet Rate Location/Type
09:39AM 50.3667 -104.6000 128° Southeast 180 207 4,100  Level Winnipeg Center
09:40AM 50.3333 -104.5167 122° Southeast 230 265 6,500 2,400 Climbing Winnipeg Center
09:41AM 50.5138 -104.6473 132° Southeast  Level FlightAware Approximate
09:41AM 50.2667 -104.4333 141° Southeast 280 322 8,900  Level Winnipeg Center
09:42AM 50.4268 -104.5036 135° Southeast  Level FlightAware Approximate
09:42AM 50.2167 -104.3500 133° Southeast 310 357 11,300  Level Winnipeg Center
09:43AM 50.3376 -104.3632 135° Southeast  Level FlightAware Approximate
09:43AM 50.1500 -104.2333 132° Southeast 330 380 13,500  Level Winnipeg Center
09:44AM 50.2550 -104.2363 135° Southeast  Level FlightAware Approximate
09:44AM 50.0833 -104.1167 132° Southeast 340 391 15,300  Level Winnipeg Center
09:45AM 50.0167 -104.0000 132° Southeast 360 414 17,100 1,680 Climbing Winnipeg Center
09:46AM 49.9500 -103.8833 132° Southeast 370 426 18,700 1,440 Climbing Winnipeg Center
09:47AM 49.8833 -103.7667 132° Southeast 380 437 20,000 1,440 Climbing Winnipeg Center
09:48AM 49.8000 -103.6333 134° Southeast 400 460 21,600 1,380 Climbing Winnipeg Center
09:49AM 49.7167 -103.5167 138° Southeast 400 460 22,800 1,200 Climbing Winnipeg Center
09:50AM 49.6500 -103.4000 131° Southeast 410 472 24,100 1,140 Climbing Winnipeg Center
09:51AM 49.5667 -103.2667 134° Southeast 420 483 25,100 900 Climbing Winnipeg Center
09:52AM 49.4833 -103.1167 131° Southeast 420 483 26,000 840 Climbing Winnipeg Center
09:53AM 49.4000 -102.9833 134° Southeast 430 495 26,800 840 Climbing Winnipeg Center
09:54AM 49.3167 -102.8667 138° Southeast 440 506 27,700 840 Climbing Winnipeg Center
09:55AM 49.2333 -102.7000 127° Southeast 440 506 28,500 780 Climbing Winnipeg Center
09:56AM 49.1333 -102.6000 147° Southeast 450 518 29,300 720 Climbing Winnipeg Center
09:57AM 49.0667 -102.4333 121° Southeast 450 518 30,000 780 Climbing Winnipeg Center
09:58AM 48.9667 -102.3167 143° Southeast 450 518 30,900 780 Climbing Winnipeg Center
09:59AM 48.8767 -102.1297 126° Southeast 448 516 31,900 720 Climbing Minneapolis Center
10:00AM 48.7919 -101.9964 134° Southeast 442 509 32,700 480 Climbing Minneapolis Center
10:01AM 48.7050 -101.8636 135° Southeast 443 510 33,000 120 Climbing Minneapolis Center
10:02AM 48.6183 -101.7300 134° Southeast 444 511 33,000  Level Minneapolis Center
10:03AM 48.5133 -101.5725 135° Southeast 444 511 33,000  Level Minneapolis Center
10:04AM 48.4267 -101.4411 135° Southeast 443 510 33,000  Level Minneapolis Center
10:05AM 48.3392 -101.3083 135° Southeast 446 513 33,000  Level Minneapolis Center
10:06AM 48.2511 -101.1764 135° Southeast 447 514 33,000  Level Minneapolis Center
10:07AM 48.1689 -101.0550 135° Southeast 447 514 33,000  Level Minneapolis Center
10:09AM 48.0650 -100.8961 134° Southeast 447 514 33,000  Level Minneapolis Center
10:10AM 47.9756 -100.7644 135° Southeast 450 518 33,000  Level Minneapolis Center
10:11AM 47.8708 -100.6092 135° Southeast 447 514 33,000  Level Minneapolis Center
10:12AM 47.7836 -100.4808 135° Southeast 445 512 33,000  Level Minneapolis Center
10:13AM 47.6961 -100.3517 135° Southeast 445 512 33,000  Level Minneapolis Center
10:14AM 47.6261 -100.2481 135° Southeast 446 513 33,000  Level Minneapolis Center
10:15AM 47.4997 -100.0661 136° Southeast 451 519 33,000  Level Minneapolis Center
10:16AM 47.4106 -99.9392 136° Southeast 451 519 33,000  Level Minneapolis Center
10:17AM 47.3217 -99.8139 136° Southeast 448 516 33,000  Level Minneapolis Center
10:18AM 47.2336 -99.6886 136° Southeast 446 513 33,000  Level Minneapolis Center
10:19AM 47.1611 -99.5883 137° Southeast 446 513 33,000  Level Minneapolis Center
10:20AM 47.0367 -99.4122 136° Southeast 446 513 33,000  Level Minneapolis Center
10:21AM 46.9475 -99.2886 137° Southeast 445 512 33,000  Level Minneapolis Center
10:22AM 46.8578 -99.1647 137° Southeast 446 513 33,000  Level Minneapolis Center
10:23AM 46.7678 -99.0408 137° Southeast 446 513 33,000  Level Minneapolis Center
10:24AM 46.6783 -98.9194 137° Southeast 443 510 33,000  Level Minneapolis Center
10:25AM 46.5894 -98.7967 136° Southeast 443 510 33,000  Level Minneapolis Center
10:26AM 46.4806 -98.6517 137° Southeast 444 511 33,000  Level Minneapolis Center
10:27AM 46.3903 -98.5283 137° Southeast 446 513 33,000  Level Minneapolis Center
10:28AM 46.3000 -98.4067 137° Southeast 446 513 33,000  Level Minneapolis Center
10:29AM 46.2100 -98.2867 137° Southeast 445 512 33,000  Level Minneapolis Center
10:30AM 46.1375 -98.1897 137° Southeast 445 512 33,000  Level Minneapolis Center
10:31AM 46.0092 -98.0197 137° Southeast 449 517 33,000  Level Minneapolis Center
10:32AM 45.9181 -97.8992 137° Southeast 447 514 33,000  Level Minneapolis Center
10:34AM 45.8169 -97.7672 138° Southeast 445 512 33,000  Level Minneapolis Center
10:35AM 45.7256 -97.6464 137° Southeast 447 514 33,000  Level Minneapolis Center
10:36AM 45.6336 -97.5272 138° Southeast 447 514 33,000  Level Minneapolis Center
10:37AM 45.5408 -97.4081 138° Southeast 448 516 33,000  Level Minneapolis Center
10:38AM 45.4300 -97.2642 138° Southeast 449 517 33,000  Level Minneapolis Center
10:39AM 45.3367 -97.1453 138° Southeast 450 518 33,000  Level Minneapolis Center
10:40AM 45.2247 -97.0000 138° Southeast 455 524 33,000  Level Minneapolis Center
10:41AM 45.1283 -96.8808 139° Southeast 458 527 33,000  Level Minneapolis Center
10:42AM 45.0336 -96.7592 138° Southeast 460 529 33,000  Level Minneapolis Center
10:43AM 44.9367 -96.6386 139° Southeast 463 533 33,000  Level Minneapolis Center
10:44AM 44.8403 -96.5172 138° Southeast 464 534 33,000  Level Minneapolis Center
10:45AM 44.7428 -96.3967 139° Southeast 466 536 33,000  Level Minneapolis Center
10:46AM 44.6456 -96.2764 139° Southeast 464 534 33,000  Level Minneapolis Center
10:47AM 44.5303 -96.1286 138° Southeast 465 535 33,000  Level Minneapolis Center
10:48AM 44.4689 -95.9636 117° Southeast 477 549 33,000  Level Minneapolis Center
10:49AM 44.4281 -95.7836 108° East 481 554 33,000  Level Minneapolis Center
10:50AM 44.3881 -95.6044 107° East 481 554 33,000  Level Minneapolis Center
10:51AM 44.3475 -95.4264 108° East 481 554 33,000  Level Minneapolis Center
10:52AM 44.3058 -95.2467 108° East 485 558 33,000  Level Minneapolis Center
10:53AM 44.2661 -95.0703 107° East 480 552 33,000  Level Minneapolis Center
10:54AM 44.2167 -94.8561 108° East 482 555 33,000  Level Minneapolis Center
10:55AM 44.1744 -94.6789 108° East 484 557 33,000  Level Minneapolis Center
10:56AM 44.1381 -94.5244 108° East 485 558 33,000  Level Minneapolis Center
10:58AM 44.0869 -94.3125 108° East 485 558 33,000  Level Minneapolis Center
10:59AM 44.0439 -94.1347 109° East 487 560 33,000  Level Minneapolis Center
11:00AM 44.0000 -93.9583 109° East 487 560 33,000  Level Minneapolis Center
11:01AM 43.9433 -93.7897 115° Southeast 485 558 33,000  Level Minneapolis Center
11:02AM 43.8844 -93.6219 116° Southeast 486 559 33,000  Level Minneapolis Center
11:03AM 43.8161 -93.4200 115° Southeast 486 559 33,000  Level Minneapolis Center
11:04AM 43.7569 -93.2511 116° Southeast 490 564 33,000  Level Minneapolis Center
11:05AM 43.6986 -93.0869 116° Southeast 489 563 33,000 -300 Level Minneapolis Center
11:06AM 43.6394 -92.9158 115° Southeast 494 568 32,500 -540 Descending Minneapolis Center
11:07AM 43.5778 -92.7442 116° Southeast 501 577 32,000 -540 Descending Minneapolis Center
11:08AM 43.5036 -92.5386 116° Southeast 503 579 31,400 -480 Descending Minneapolis Center
11:09AM 43.4425 -92.3697 116° Southeast 497 572 31,000 -240 Descending Minneapolis Center
11:10AM 43.3808 -92.2000 117° Southeast 499 574 31,000  Level Minneapolis Center
11:11AM 43.3194 -92.0272 116° Southeast 505 581 31,000  Level Minneapolis Center
11:12AM 43.2575 -91.8561 116° Southeast 504 580 31,000  Level Minneapolis Center
11:13AM 43.1844 -91.6558 117° Southeast 495 570 31,000  Level Minneapolis Center
11:14AM 43.1258 -91.4856 115° Southeast 493 567 31,000  Level Minneapolis Center
11:15AM 43.0789 -91.3508 115° Southeast 494 568 31,000  Level Chicago Center
11:16AM 43.0192 -91.1803 116° Southeast 495 570 31,000  Level Chicago Center
11:17AM 42.9603 -91.0117 115° Southeast 493 567 31,000  Level Chicago Center
11:18AM 42.9025 -90.8456 115° Southeast 488 562 31,000  Level Chicago Center
11:19AM 42.8328 -90.6461 115° Southeast 487 560 31,000  Level Chicago Center
11:20AM 42.7736 -90.4831 116° Southeast 485 558 31,000  Level Chicago Center
11:21AM 42.7158 -90.3189 116° Southeast 482 555 31,000 -420 Level Chicago Center
11:22AM 42.6561 -90.1553 116° Southeast 485 558 30,200 -1,980 Descending Chicago Center
11:23AM 42.5947 -89.9914 117° Southeast 489 563 27,000 -3,000 Descending Chicago Center
11:24AM 42.5325 -89.8197 116° Southeast 461 531 24,100 -1,980 Descending Chicago Center
11:25AM 42.5147 -89.6589 98° East 442 509 23,000 -1,860 Descending Chicago Center
11:26AM 42.5128 -89.4692 91° East 436 502 20,300 -2,460 Descending Chicago Center
11:27AM 42.5106 -89.3175 91° East 415 478 18,000 -2,040 Descending Chicago Center
11:28AM 42.5078 -89.1686 91° East 401 461 16,200 -1,620 Descending Chicago Center
11:29AM 42.5067 -89.0250 91° East 390 449 14,700 -1,440 Descending Chicago Center
11:30AM 42.4925 -88.8911 98° East 375 432 13,300 -1,740 Descending Chicago Center
11:31AM 42.4489 -88.7472 112° Southeast 359 413 11,200 -1,140 Descending Chicago Center
11:32AM 42.4144 -88.6325 112° Southeast 336 387 11,000 -1,020 Descending Chicago Center
11:33AM 42.3808 -88.5211 112° Southeast 323 372 9,200 -1,020 Descending Chicago Center
11:35AM 42.3253 -88.4417 133° Southeast 320 368 9,000 -180 Descending Chicago Center
11:36AM 42.2400 -88.4067 163° South 289 333 8,900 -720 Descending Chicago Center
11:37AM 42.1717 -88.3808 164° South 263 303 7,600 -960 Descending Chicago Center
11:38AM 42.1056 -88.3703 173° South 244 281 7,000 -780 Descending Chicago Center
11:39AM 42.0483 -88.3586 171° South 213 245 6,100 -720 Descending Chicago Center
11:40AM 41.9922 -88.3500 173° South 206 237 5,600 -840 Descending Chicago Center
11:41AM 41.9644 -88.2875 121° Southeast 194 223 4,400 -780 Descending Chicago Center
11:42AM 41.9686 -88.2186 85° East 191 220 4,000 -240 Descending Chicago Center
11:43AM 41.9681 -88.1492 91° East 188 216 4,000 -600 Level Chicago Center
11:44AM 41.9683 -88.0775 90° East 189 217 2,800 -1,200 Descending Chicago Center